sensor_id;sensor_type;location;lat;lon;timestamp;P1;durP1;ratioP1;P2;durP2;ratioP2
25615;SDS011;13482;48.234;13.006;2024-03-06T00:02:22;6.25;;;3.75;;
25615;SDS011;13482;48.234;13.006;2024-03-06T00:04:50;5.30;;;3.67;;
25615;SDS011;13482;48.234;13.006;2024-03-06T00:07:17;6.40;;;3.83;;
25615;SDS011;13482;48.234;13.006;2024-03-06T00:09:45;6.28;;;4.18;;
25615;SDS011;13482;48.234;13.006;2024-03-06T00:12:12;9.95;;;4.50;;
25615;SDS011;13482;48.234;13.006;2024-03-06T00:14:40;6.97;;;4.20;;
25615;SDS011;13482;48.234;13.006;2024-03-06T00:17:08;7.40;;;4.40;;
25615;SDS011;13482;48.234;13.006;2024-03-06T00:19:36;8.68;;;4.72;;
25615;SDS011;13482;48.234;13.006;2024-03-06T00:22:03;6.45;;;4.10;;
25615;SDS011;13482;48.234;13.006;2024-03-06T00:24:32;6.50;;;3.97;;
25615;SDS011;13482;48.234;13.006;2024-03-06T00:26:59;6.43;;;4.00;;
25615;SDS011;13482;48.234;13.006;2024-03-06T00:29:28;6.93;;;4.20;;
25615;SDS011;13482;48.234;13.006;2024-03-06T00:31:58;7.00;;;4.15;;
25615;SDS011;13482;48.234;13.006;2024-03-06T00:34:26;6.63;;;4.32;;
25615;SDS011;13482;48.234;13.006;2024-03-06T00:36:54;5.40;;;3.38;;
25615;SDS011;13482;48.234;13.006;2024-03-06T00:39:21;6.70;;;4.05;;
25615;SDS011;13482;48.234;13.006;2024-03-06T00:41:49;10.77;;;4.47;;
25615;SDS011;13482;48.234;13.006;2024-03-06T00:44:16;7.18;;;4.00;;
25615;SDS011;13482;48.234;13.006;2024-03-06T00:46:44;6.55;;;4.28;;
25615;SDS011;13482;48.234;13.006;2024-03-06T00:49:11;6.60;;;3.95;;
25615;SDS011;13482;48.234;13.006;2024-03-06T00:51:39;6.63;;;3.63;;
25615;SDS011;13482;48.234;13.006;2024-03-06T00:54:14;5.68;;;3.47;;
25615;SDS011;13482;48.234;13.006;2024-03-06T00:56:42;5.38;;;3.60;;
25615;SDS011;13482;48.234;13.006;2024-03-06T00:59:09;6.25;;;4.18;;
25615;SDS011;13482;48.234;13.006;2024-03-06T01:01:37;7.22;;;3.95;;
25615;SDS011;13482;48.234;13.006;2024-03-06T01:04:05;6.82;;;4.20;;
25615;SDS011;13482;48.234;13.006;2024-03-06T01:06:33;7.50;;;4.10;;
25615;SDS011;13482;48.234;13.006;2024-03-06T01:09:00;8.27;;;5.10;;
25615;SDS011;13482;48.234;13.006;2024-03-06T01:11:28;5.75;;;3.88;;
25615;SDS011;13482;48.234;13.006;2024-03-06T01:13:55;8.18;;;4.50;;
25615;SDS011;13482;48.234;13.006;2024-03-06T01:16:23;7.60;;;4.60;;
25615;SDS011;13482;48.234;13.006;2024-03-06T01:18:50;6.47;;;3.90;;
25615;SDS011;13482;48.234;13.006;2024-03-06T01:21:18;6.40;;;4.10;;
25615;SDS011;13482;48.234;13.006;2024-03-06T01:23:45;7.63;;;4.60;;
25615;SDS011;13482;48.234;13.006;2024-03-06T01:26:13;7.05;;;4.28;;
25615;SDS011;13482;48.234;13.006;2024-03-06T01:28:41;5.68;;;3.67;;
25615;SDS011;13482;48.234;13.006;2024-03-06T01:31:08;6.22;;;3.60;;
25615;SDS011;13482;48.234;13.006;2024-03-06T01:33:36;6.53;;;3.80;;
25615;SDS011;13482;48.234;13.006;2024-03-06T01:36:04;7.53;;;4.30;;
25615;SDS011;13482;48.234;13.006;2024-03-06T01:38:32;6.97;;;3.90;;
25615;SDS011;13482;48.234;13.006;2024-03-06T01:40:59;11.38;;;4.32;;
25615;SDS011;13482;48.234;13.006;2024-03-06T01:43:27;6.68;;;4.40;;
25615;SDS011;13482;48.234;13.006;2024-03-06T01:45:54;6.72;;;3.58;;
25615;SDS011;13482;48.234;13.006;2024-03-06T01:48:23;6.45;;;3.78;;
25615;SDS011;13482;48.234;13.006;2024-03-06T01:50:56;7.05;;;4.63;;
25615;SDS011;13482;48.234;13.006;2024-03-06T01:53:27;6.75;;;3.67;;
25615;SDS011;13482;48.234;13.006;2024-03-06T01:55:58;7.97;;;4.65;;
25615;SDS011;13482;48.234;13.006;2024-03-06T01:58:26;8.30;;;4.70;;
25615;SDS011;13482;48.234;13.006;2024-03-06T02:00:55;6.70;;;4.20;;
25615;SDS011;13482;48.234;13.006;2024-03-06T02:03:23;8.18;;;4.20;;
25615;SDS011;13482;48.234;13.006;2024-03-06T02:05:53;7.75;;;4.57;;
25615;SDS011;13482;48.234;13.006;2024-03-06T02:08:20;6.55;;;4.53;;
25615;SDS011;13482;48.234;13.006;2024-03-06T02:10:48;6.75;;;4.15;;
25615;SDS011;13482;48.234;13.006;2024-03-06T02:13:16;6.50;;;3.97;;
25615;SDS011;13482;48.234;13.006;2024-03-06T02:15:44;7.05;;;4.25;;
25615;SDS011;13482;48.234;13.006;2024-03-06T02:18:12;6.72;;;3.90;;
25615;SDS011;13482;48.234;13.006;2024-03-06T02:20:40;8.80;;;3.95;;
25615;SDS011;13482;48.234;13.006;2024-03-06T02:23:07;6.55;;;4.20;;
25615;SDS011;13482;48.234;13.006;2024-03-06T02:25:35;6.28;;;3.33;;
25615;SDS011;13482;48.234;13.006;2024-03-06T02:28:03;5.85;;;3.55;;
25615;SDS011;13482;48.234;13.006;2024-03-06T02:30:32;6.20;;;4.07;;
25615;SDS011;13482;48.234;13.006;2024-03-06T02:33:04;6.10;;;3.90;;
25615;SDS011;13482;48.234;13.006;2024-03-06T02:35:36;6.38;;;4.07;;
25615;SDS011;13482;48.234;13.006;2024-03-06T02:38:05;5.65;;;3.72;;
25615;SDS011;13482;48.234;13.006;2024-03-06T02:40:32;5.45;;;3.63;;
25615;SDS011;13482;48.234;13.006;2024-03-06T02:43:01;5.60;;;3.42;;
25615;SDS011;13482;48.234;13.006;2024-03-06T02:45:29;6.28;;;3.90;;
25615;SDS011;13482;48.234;13.006;2024-03-06T02:47:56;6.65;;;3.83;;
25615;SDS011;13482;48.234;13.006;2024-03-06T02:50:24;6.03;;;3.97;;
25615;SDS011;13482;48.234;13.006;2024-03-06T02:52:52;8.05;;;4.03;;
25615;SDS011;13482;48.234;13.006;2024-03-06T02:55:21;6.50;;;3.95;;
25615;SDS011;13482;48.234;13.006;2024-03-06T02:57:50;7.23;;;4.40;;
25615;SDS011;13482;48.234;13.006;2024-03-06T03:00:18;6.85;;;4.30;;
25615;SDS011;13482;48.234;13.006;2024-03-06T03:02:45;6.63;;;4.45;;
25615;SDS011;13482;48.234;13.006;2024-03-06T03:05:13;7.82;;;4.43;;
25615;SDS011;13482;48.234;13.006;2024-03-06T03:07:41;7.47;;;4.63;;
25615;SDS011;13482;48.234;13.006;2024-03-06T03:10:08;6.90;;;4.40;;
25615;SDS011;13482;48.234;13.006;2024-03-06T03:12:40;6.18;;;3.75;;
25615;SDS011;13482;48.234;13.006;2024-03-06T03:15:08;5.60;;;3.72;;
25615;SDS011;13482;48.234;13.006;2024-03-06T03:17:36;6.35;;;3.80;;
25615;SDS011;13482;48.234;13.006;2024-03-06T03:20:04;5.53;;;3.55;;
25615;SDS011;13482;48.234;13.006;2024-03-06T03:22:40;6.50;;;3.97;;
25615;SDS011;13482;48.234;13.006;2024-03-06T03:25:08;6.72;;;3.88;;
25615;SDS011;13482;48.234;13.006;2024-03-06T03:27:40;7.38;;;4.38;;
25615;SDS011;13482;48.234;13.006;2024-03-06T03:30:10;4.70;;;3.33;;
25615;SDS011;13482;48.234;13.006;2024-03-06T03:32:38;7.95;;;3.85;;
25615;SDS011;13482;48.234;13.006;2024-03-06T03:35:06;8.23;;;4.45;;
25615;SDS011;13482;48.234;13.006;2024-03-06T03:37:34;6.70;;;3.92;;
25615;SDS011;13482;48.234;13.006;2024-03-06T03:40:02;7.05;;;4.05;;
25615;SDS011;13482;48.234;13.006;2024-03-06T03:42:30;5.63;;;3.88;;
25615;SDS011;13482;48.234;13.006;2024-03-06T03:44:57;6.65;;;3.85;;
25615;SDS011;13482;48.234;13.006;2024-03-06T03:47:25;6.22;;;3.90;;
25615;SDS011;13482;48.234;13.006;2024-03-06T03:49:52;5.72;;;3.67;;
25615;SDS011;13482;48.234;13.006;2024-03-06T03:52:35;6.65;;;3.80;;
25615;SDS011;13482;48.234;13.006;2024-03-06T03:55:03;6.30;;;4.00;;
25615;SDS011;13482;48.234;13.006;2024-03-06T03:57:31;6.03;;;4.03;;
25615;SDS011;13482;48.234;13.006;2024-03-06T03:59:59;7.20;;;4.32;;
25615;SDS011;13482;48.234;13.006;2024-03-06T04:02:26;7.20;;;4.68;;
25615;SDS011;13482;48.234;13.006;2024-03-06T04:04:54;7.95;;;4.63;;
25615;SDS011;13482;48.234;13.006;2024-03-06T04:07:22;7.97;;;4.63;;
25615;SDS011;13482;48.234;13.006;2024-03-06T04:09:49;6.90;;;4.35;;
25615;SDS011;13482;48.234;13.006;2024-03-06T04:12:17;8.32;;;4.45;;
25615;SDS011;13482;48.234;13.006;2024-03-06T04:14:45;7.85;;;4.68;;
25615;SDS011;13482;48.234;13.006;2024-03-06T04:17:12;6.72;;;4.07;;
25615;SDS011;13482;48.234;13.006;2024-03-06T04:19:40;7.93;;;4.80;;
25615;SDS011;13482;48.234;13.006;2024-03-06T04:22:08;7.75;;;4.45;;
25615;SDS011;13482;48.234;13.006;2024-03-06T04:24:35;8.68;;;5.20;;
25615;SDS011;13482;48.234;13.006;2024-03-06T04:27:03;8.02;;;4.75;;
25615;SDS011;13482;48.234;13.006;2024-03-06T04:29:31;9.15;;;5.13;;
25615;SDS011;13482;48.234;13.006;2024-03-06T04:31:58;8.43;;;5.13;;
25615;SDS011;13482;48.234;13.006;2024-03-06T04:34:26;7.57;;;5.00;;
25615;SDS011;13482;48.234;13.006;2024-03-06T04:36:54;8.82;;;5.00;;
25615;SDS011;13482;48.234;13.006;2024-03-06T04:39:22;8.00;;;4.75;;
25615;SDS011;13482;48.234;13.006;2024-03-06T04:41:49;8.95;;;4.97;;
25615;SDS011;13482;48.234;13.006;2024-03-06T04:44:17;8.77;;;5.10;;
25615;SDS011;13482;48.234;13.006;2024-03-06T04:46:44;8.82;;;5.43;;
25615;SDS011;13482;48.234;13.006;2024-03-06T04:49:12;6.80;;;4.18;;
25615;SDS011;13482;48.234;13.006;2024-03-06T04:51:39;8.23;;;5.00;;
25615;SDS011;13482;48.234;13.006;2024-03-06T04:54:07;7.88;;;4.88;;
25615;SDS011;13482;48.234;13.006;2024-03-06T04:56:35;7.25;;;4.63;;
25615;SDS011;13482;48.234;13.006;2024-03-06T04:59:02;7.38;;;4.68;;
25615;SDS011;13482;48.234;13.006;2024-03-06T05:01:30;8.02;;;4.93;;
25615;SDS011;13482;48.234;13.006;2024-03-06T05:03:58;7.60;;;4.65;;
25615;SDS011;13482;48.234;13.006;2024-03-06T05:06:43;6.70;;;4.20;;
25615;SDS011;13482;48.234;13.006;2024-03-06T05:09:27;7.85;;;5.05;;
25615;SDS011;13482;48.234;13.006;2024-03-06T05:12:12;9.45;;;5.57;;
25615;SDS011;13482;48.234;13.006;2024-03-06T05:14:57;11.38;;;7.05;;
25615;SDS011;13482;48.234;13.006;2024-03-06T05:17:42;10.65;;;6.75;;
25615;SDS011;13482;48.234;13.006;2024-03-06T05:20:28;10.10;;;6.53;;
25615;SDS011;13482;48.234;13.006;2024-03-06T05:23:15;9.35;;;6.65;;
25615;SDS011;13482;48.234;13.006;2024-03-06T05:26:01;10.60;;;6.95;;
25615;SDS011;13482;48.234;13.006;2024-03-06T05:28:45;12.63;;;7.38;;
25615;SDS011;13482;48.234;13.006;2024-03-06T05:31:30;11.95;;;6.95;;
25615;SDS011;13482;48.234;13.006;2024-03-06T05:34:16;10.60;;;6.40;;
25615;SDS011;13482;48.234;13.006;2024-03-06T05:37:01;11.77;;;6.70;;
25615;SDS011;13482;48.234;13.006;2024-03-06T05:39:48;11.57;;;7.57;;
25615;SDS011;13482;48.234;13.006;2024-03-06T05:42:32;10.50;;;7.13;;
25615;SDS011;13482;48.234;13.006;2024-03-06T05:45:17;10.88;;;7.10;;
25615;SDS011;13482;48.234;13.006;2024-03-06T05:48:02;11.50;;;7.72;;
25615;SDS011;13482;48.234;13.006;2024-03-06T05:50:47;11.60;;;7.75;;
25615;SDS011;13482;48.234;13.006;2024-03-06T05:53:35;13.57;;;8.68;;
25615;SDS011;13482;48.234;13.006;2024-03-06T05:56:26;13.90;;;9.75;;
25615;SDS011;13482;48.234;13.006;2024-03-06T05:59:10;14.32;;;9.85;;
25615;SDS011;13482;48.234;13.006;2024-03-06T06:01:38;15.25;;;11.13;;
25615;SDS011;13482;48.234;13.006;2024-03-06T06:04:06;15.35;;;10.32;;
25615;SDS011;13482;48.234;13.006;2024-03-06T06:06:38;12.70;;;9.48;;
25615;SDS011;13482;48.234;13.006;2024-03-06T06:09:10;12.95;;;9.63;;
25615;SDS011;13482;48.234;13.006;2024-03-06T06:11:43;13.90;;;9.18;;
25615;SDS011;13482;48.234;13.006;2024-03-06T06:14:11;13.50;;;9.05;;
25615;SDS011;13482;48.234;13.006;2024-03-06T06:16:41;13.85;;;9.35;;
25615;SDS011;13482;48.234;13.006;2024-03-06T06:19:09;13.90;;;9.73;;
25615;SDS011;13482;48.234;13.006;2024-03-06T06:21:37;13.32;;;9.35;;
25615;SDS011;13482;48.234;13.006;2024-03-06T06:24:04;13.52;;;8.98;;
25615;SDS011;13482;48.234;13.006;2024-03-06T06:26:32;13.60;;;9.07;;
25615;SDS011;13482;48.234;13.006;2024-03-06T06:29:00;13.05;;;8.70;;
25615;SDS011;13482;48.234;13.006;2024-03-06T06:31:28;12.73;;;8.98;;
25615;SDS011;13482;48.234;13.006;2024-03-06T06:33:56;13.77;;;8.80;;
25615;SDS011;13482;48.234;13.006;2024-03-06T06:36:24;13.35;;;9.15;;
25615;SDS011;13482;48.234;13.006;2024-03-06T06:38:51;15.02;;;9.07;;
25615;SDS011;13482;48.234;13.006;2024-03-06T06:41:20;10.95;;;7.72;;
25615;SDS011;13482;48.234;13.006;2024-03-06T06:43:47;13.20;;;8.77;;
25615;SDS011;13482;48.234;13.006;2024-03-06T06:46:18;12.15;;;8.13;;
25615;SDS011;13482;48.234;13.006;2024-03-06T06:48:45;10.23;;;7.40;;
25615;SDS011;13482;48.234;13.006;2024-03-06T06:51:15;11.50;;;7.78;;
25615;SDS011;13482;48.234;13.006;2024-03-06T06:53:43;10.85;;;7.65;;
25615;SDS011;13482;48.234;13.006;2024-03-06T06:56:11;11.07;;;7.57;;
25615;SDS011;13482;48.234;13.006;2024-03-06T06:58:38;11.25;;;7.47;;
25615;SDS011;13482;48.234;13.006;2024-03-06T07:01:09;11.00;;;7.00;;
25615;SDS011;13482;48.234;13.006;2024-03-06T07:03:37;11.32;;;7.82;;
25615;SDS011;13482;48.234;13.006;2024-03-06T07:06:04;10.70;;;7.47;;
25615;SDS011;13482;48.234;13.006;2024-03-06T07:08:33;10.70;;;7.40;;
25615;SDS011;13482;48.234;13.006;2024-03-06T07:11:01;12.20;;;7.95;;
25615;SDS011;13482;48.234;13.006;2024-03-06T07:13:28;14.55;;;7.18;;
25615;SDS011;13482;48.234;13.006;2024-03-06T07:15:56;10.68;;;7.20;;
25615;SDS011;13482;48.234;13.006;2024-03-06T07:18:23;10.27;;;7.15;;
25615;SDS011;13482;48.234;13.006;2024-03-06T07:20:51;12.68;;;7.47;;
25615;SDS011;13482;48.234;13.006;2024-03-06T07:23:19;10.65;;;7.20;;
25615;SDS011;13482;48.234;13.006;2024-03-06T07:25:47;11.23;;;7.78;;
25615;SDS011;13482;48.234;13.006;2024-03-06T07:28:14;10.90;;;7.03;;
25615;SDS011;13482;48.234;13.006;2024-03-06T07:30:42;9.93;;;7.28;;
25615;SDS011;13482;48.234;13.006;2024-03-06T07:33:09;11.00;;;7.30;;
25615;SDS011;13482;48.234;13.006;2024-03-06T07:35:37;10.20;;;6.90;;
25615;SDS011;13482;48.234;13.006;2024-03-06T07:38:05;10.50;;;6.88;;
25615;SDS011;13482;48.234;13.006;2024-03-06T07:40:32;11.60;;;7.70;;
25615;SDS011;13482;48.234;13.006;2024-03-06T07:43:00;9.90;;;7.13;;
25615;SDS011;13482;48.234;13.006;2024-03-06T07:45:28;10.60;;;6.93;;
25615;SDS011;13482;48.234;13.006;2024-03-06T07:47:56;12.73;;;7.88;;
25615;SDS011;13482;48.234;13.006;2024-03-06T07:50:23;11.68;;;7.88;;
25615;SDS011;13482;48.234;13.006;2024-03-06T07:52:52;10.60;;;7.03;;
25615;SDS011;13482;48.234;13.006;2024-03-06T07:55:22;10.57;;;6.90;;
25615;SDS011;13482;48.234;13.006;2024-03-06T07:57:49;11.55;;;7.53;;
25615;SDS011;13482;48.234;13.006;2024-03-06T08:00:17;9.60;;;6.43;;
25615;SDS011;13482;48.234;13.006;2024-03-06T08:02:46;11.90;;;7.15;;
25615;SDS011;13482;48.234;13.006;2024-03-06T08:05:17;9.05;;;6.28;;
25615;SDS011;13482;48.234;13.006;2024-03-06T08:07:45;11.35;;;6.95;;
25615;SDS011;13482;48.234;13.006;2024-03-06T08:10:13;9.75;;;6.75;;
25615;SDS011;13482;48.234;13.006;2024-03-06T08:12:41;11.02;;;7.35;;
25615;SDS011;13482;48.234;13.006;2024-03-06T08:15:11;11.38;;;7.15;;
25615;SDS011;13482;48.234;13.006;2024-03-06T08:17:40;12.82;;;7.78;;
25615;SDS011;13482;48.234;13.006;2024-03-06T08:20:11;11.70;;;7.82;;
25615;SDS011;13482;48.234;13.006;2024-03-06T08:22:40;11.98;;;7.30;;
25615;SDS011;13482;48.234;13.006;2024-03-06T08:25:09;11.77;;;7.32;;
25615;SDS011;13482;48.234;13.006;2024-03-06T08:27:39;10.82;;;7.07;;
25615;SDS011;13482;48.234;13.006;2024-03-06T08:30:08;10.98;;;6.95;;
25615;SDS011;13482;48.234;13.006;2024-03-06T08:32:36;10.88;;;7.10;;
25615;SDS011;13482;48.234;13.006;2024-03-06T08:35:05;10.32;;;7.05;;
25615;SDS011;13482;48.234;13.006;2024-03-06T08:37:40;11.18;;;7.68;;
25615;SDS011;13482;48.234;13.006;2024-03-06T08:40:10;10.52;;;7.32;;
25615;SDS011;13482;48.234;13.006;2024-03-06T08:42:41;11.98;;;7.18;;
25615;SDS011;13482;48.234;13.006;2024-03-06T08:45:09;11.98;;;7.10;;
25615;SDS011;13482;48.234;13.006;2024-03-06T08:47:37;11.63;;;6.82;;
25615;SDS011;13482;48.234;13.006;2024-03-06T08:50:05;10.02;;;6.85;;
25615;SDS011;13482;48.234;13.006;2024-03-06T08:52:37;10.75;;;6.85;;
25615;SDS011;13482;48.234;13.006;2024-03-06T08:55:06;9.93;;;6.72;;
25615;SDS011;13482;48.234;13.006;2024-03-06T08:57:35;10.48;;;7.10;;
25615;SDS011;13482;48.234;13.006;2024-03-06T09:00:04;9.82;;;6.80;;
25615;SDS011;13482;48.234;13.006;2024-03-06T09:02:38;10.13;;;6.53;;
25615;SDS011;13482;48.234;13.006;2024-03-06T09:05:09;11.63;;;7.63;;
25615;SDS011;13482;48.234;13.006;2024-03-06T09:07:40;11.57;;;7.05;;
25615;SDS011;13482;48.234;13.006;2024-03-06T09:10:08;9.95;;;6.80;;
25615;SDS011;13482;48.234;13.006;2024-03-06T09:12:40;10.07;;;6.85;;
25615;SDS011;13482;48.234;13.006;2024-03-06T09:15:08;10.93;;;7.00;;
25615;SDS011;13482;48.234;13.006;2024-03-06T09:17:38;10.60;;;7.15;;
25615;SDS011;13482;48.234;13.006;2024-03-06T09:20:06;8.98;;;6.28;;
25615;SDS011;13482;48.234;13.006;2024-03-06T09:22:39;11.15;;;7.65;;
25615;SDS011;13482;48.234;13.006;2024-03-06T09:25:09;10.07;;;6.70;;
25615;SDS011;13482;48.234;13.006;2024-03-06T09:27:42;9.63;;;6.82;;
25615;SDS011;13482;48.234;13.006;2024-03-06T09:30:10;10.38;;;7.00;;
25615;SDS011;13482;48.234;13.006;2024-03-06T09:32:40;10.32;;;7.15;;
25615;SDS011;13482;48.234;13.006;2024-03-06T09:35:08;9.77;;;6.88;;
25615;SDS011;13482;48.234;13.006;2024-03-06T09:37:36;10.77;;;7.18;;
25615;SDS011;13482;48.234;13.006;2024-03-06T09:40:04;10.50;;;7.50;;
25615;SDS011;13482;48.234;13.006;2024-03-06T09:42:34;9.75;;;7.25;;
25615;SDS011;13482;48.234;13.006;2024-03-06T09:45:01;11.23;;;7.80;;
25615;SDS011;13482;48.234;13.006;2024-03-06T09:47:31;10.10;;;7.50;;
25615;SDS011;13482;48.234;13.006;2024-03-06T09:50:01;10.25;;;7.22;;
25615;SDS011;13482;48.234;13.006;2024-03-06T09:52:29;11.88;;;8.45;;
25615;SDS011;13482;48.234;13.006;2024-03-06T09:54:58;10.80;;;7.63;;
25615;SDS011;13482;48.234;13.006;2024-03-06T09:57:27;11.02;;;7.85;;
25615;SDS011;13482;48.234;13.006;2024-03-06T09:59:55;11.25;;;8.20;;
25615;SDS011;13482;48.234;13.006;2024-03-06T10:02:39;12.23;;;8.07;;
25615;SDS011;13482;48.234;13.006;2024-03-06T10:05:23;11.20;;;8.02;;
25615;SDS011;13482;48.234;13.006;2024-03-06T10:07:51;11.38;;;8.00;;
25615;SDS011;13482;48.234;13.006;2024-03-06T10:10:20;12.20;;;8.55;;
25615;SDS011;13482;48.234;13.006;2024-03-06T10:12:51;11.18;;;8.05;;
25615;SDS011;13482;48.234;13.006;2024-03-06T10:15:18;12.20;;;8.48;;
25615;SDS011;13482;48.234;13.006;2024-03-06T10:17:48;13.52;;;8.30;;
25615;SDS011;13482;48.234;13.006;2024-03-06T10:20:20;11.50;;;7.72;;
25615;SDS011;13482;48.234;13.006;2024-03-06T10:22:51;10.23;;;7.45;;
25615;SDS011;13482;48.234;13.006;2024-03-06T10:25:24;9.55;;;7.15;;
25615;SDS011;13482;48.234;13.006;2024-03-06T10:30:35;10.93;;;7.35;;
25615;SDS011;13482;48.234;13.006;2024-03-06T10:33:10;11.20;;;7.47;;
25615;SDS011;13482;48.234;13.006;2024-03-06T10:35:43;11.45;;;7.68;;
25615;SDS011;13482;48.234;13.006;2024-03-06T10:38:12;10.77;;;7.88;;
25615;SDS011;13482;48.234;13.006;2024-03-06T10:40:41;10.30;;;7.57;;
25615;SDS011;13482;48.234;13.006;2024-03-06T10:43:10;10.70;;;7.72;;
25615;SDS011;13482;48.234;13.006;2024-03-06T10:46:00;10.65;;;7.63;;
25615;SDS011;13482;48.234;13.006;2024-03-06T10:48:31;10.50;;;7.18;;
25615;SDS011;13482;48.234;13.006;2024-03-06T10:51:01;11.75;;;8.02;;
25615;SDS011;13482;48.234;13.006;2024-03-06T10:53:30;9.73;;;6.85;;
25615;SDS011;13482;48.234;13.006;2024-03-06T10:55:59;11.40;;;7.40;;
25615;SDS011;13482;48.234;13.006;2024-03-06T10:58:29;11.68;;;8.20;;
25615;SDS011;13482;48.234;13.006;2024-03-06T11:00:59;11.45;;;7.75;;
25615;SDS011;13482;48.234;13.006;2024-03-06T11:03:27;10.15;;;7.07;;
25615;SDS011;13482;48.234;13.006;2024-03-06T11:05:57;9.85;;;7.25;;
25615;SDS011;13482;48.234;13.006;2024-03-06T11:08:28;10.40;;;7.45;;
25615;SDS011;13482;48.234;13.006;2024-03-06T11:11:18;10.68;;;7.32;;
25615;SDS011;13482;48.234;13.006;2024-03-06T11:13:55;10.57;;;6.95;;
25615;SDS011;13482;48.234;13.006;2024-03-06T11:16:28;10.10;;;6.93;;
25615;SDS011;13482;48.234;13.006;2024-03-06T11:19:07;10.63;;;7.53;;
25615;SDS011;13482;48.234;13.006;2024-03-06T11:21:45;9.43;;;7.10;;
25615;SDS011;13482;48.234;13.006;2024-03-06T11:24:15;15.40;;;7.53;;
25615;SDS011;13482;48.234;13.006;2024-03-06T11:27:04;9.88;;;6.57;;
25615;SDS011;13482;48.234;13.006;2024-03-06T11:32:58;10.02;;;7.07;;
25615;SDS011;13482;48.234;13.006;2024-03-06T11:35:29;9.27;;;6.35;;
25615;SDS011;13482;48.234;13.006;2024-03-06T11:37:59;9.93;;;7.00;;
25615;SDS011;13482;48.234;13.006;2024-03-06T11:40:26;11.15;;;7.93;;
25615;SDS011;13482;48.234;13.006;2024-03-06T11:42:54;12.82;;;8.70;;
25615;SDS011;13482;48.234;13.006;2024-03-06T11:45:21;12.00;;;8.43;;
25615;SDS011;13482;48.234;13.006;2024-03-06T11:48:01;12.02;;;7.80;;
25615;SDS011;13482;48.234;13.006;2024-03-06T11:50:30;13.00;;;8.40;;
25615;SDS011;13482;48.234;13.006;2024-03-06T11:52:58;10.65;;;7.72;;
25615;SDS011;13482;48.234;13.006;2024-03-06T11:55:26;10.75;;;7.68;;
25615;SDS011;13482;48.234;13.006;2024-03-06T11:57:53;12.63;;;8.23;;
25615;SDS011;13482;48.234;13.006;2024-03-06T12:00:21;12.65;;;8.60;;
25615;SDS011;13482;48.234;13.006;2024-03-06T12:02:50;12.27;;;8.10;;
25615;SDS011;13482;48.234;13.006;2024-03-06T12:05:18;12.20;;;8.80;;
25615;SDS011;13482;48.234;13.006;2024-03-06T12:07:50;11.82;;;8.65;;
25615;SDS011;13482;48.234;13.006;2024-03-06T12:10:18;12.88;;;8.88;;
25615;SDS011;13482;48.234;13.006;2024-03-06T12:12:45;11.45;;;7.82;;
25615;SDS011;13482;48.234;13.006;2024-03-06T12:15:14;11.48;;;8.60;;
25615;SDS011;13482;48.234;13.006;2024-03-06T12:17:42;9.60;;;7.25;;
25615;SDS011;13482;48.234;13.006;2024-03-06T12:20:18;11.18;;;7.70;;
25615;SDS011;13482;48.234;13.006;2024-03-06T12:22:50;13.27;;;8.45;;
25615;SDS011;13482;48.234;13.006;2024-03-06T12:25:23;12.18;;;8.68;;
25615;SDS011;13482;48.234;13.006;2024-03-06T12:27:54;11.95;;;8.95;;
25615;SDS011;13482;48.234;13.006;2024-03-06T12:30:22;12.73;;;8.52;;
25615;SDS011;13482;48.234;13.006;2024-03-06T12:32:56;12.40;;;9.40;;
25615;SDS011;13482;48.234;13.006;2024-03-06T12:35:31;12.48;;;8.88;;
25615;SDS011;13482;48.234;13.006;2024-03-06T12:37:59;12.43;;;9.10;;
25615;SDS011;13482;48.234;13.006;2024-03-06T12:40:26;13.35;;;10.00;;
25615;SDS011;13482;48.234;13.006;2024-03-06T12:42:55;13.27;;;9.98;;
25615;SDS011;13482;48.234;13.006;2024-03-06T12:45:22;13.20;;;9.85;;
25615;SDS011;13482;48.234;13.006;2024-03-06T12:47:50;15.13;;;10.68;;
25615;SDS011;13482;48.234;13.006;2024-03-06T12:50:18;13.07;;;9.77;;
25615;SDS011;13482;48.234;13.006;2024-03-06T12:52:47;12.80;;;9.38;;
25615;SDS011;13482;48.234;13.006;2024-03-06T12:55:14;13.38;;;9.77;;
25615;SDS011;13482;48.234;13.006;2024-03-06T12:57:42;13.15;;;9.77;;
25615;SDS011;13482;48.234;13.006;2024-03-06T13:00:12;13.75;;;9.15;;
25615;SDS011;13482;48.234;13.006;2024-03-06T13:02:44;12.50;;;8.85;;
25615;SDS011;13482;48.234;13.006;2024-03-06T13:05:12;11.95;;;8.63;;
25615;SDS011;13482;48.234;13.006;2024-03-06T13:07:40;10.88;;;8.00;;
25615;SDS011;13482;48.234;13.006;2024-03-06T13:10:10;12.65;;;8.95;;
25615;SDS011;13482;48.234;13.006;2024-03-06T13:12:38;10.77;;;8.15;;
25615;SDS011;13482;48.234;13.006;2024-03-06T13:15:06;13.48;;;9.10;;
25615;SDS011;13482;48.234;13.006;2024-03-06T13:17:33;10.95;;;7.93;;
25615;SDS011;13482;48.234;13.006;2024-03-06T13:20:01;12.05;;;9.00;;
25615;SDS011;13482;48.234;13.006;2024-03-06T13:22:29;12.55;;;9.07;;
25615;SDS011;13482;48.234;13.006;2024-03-06T13:24:56;14.55;;;9.20;;
25615;SDS011;13482;48.234;13.006;2024-03-06T13:27:24;12.35;;;8.75;;
25615;SDS011;13482;48.234;13.006;2024-03-06T13:29:51;11.80;;;7.75;;
25615;SDS011;13482;48.234;13.006;2024-03-06T13:32:19;13.63;;;9.20;;
25615;SDS011;13482;48.234;13.006;2024-03-06T13:34:47;11.52;;;8.38;;
25615;SDS011;13482;48.234;13.006;2024-03-06T13:37:15;12.27;;;8.98;;
25615;SDS011;13482;48.234;13.006;2024-03-06T13:39:42;12.63;;;8.80;;
25615;SDS011;13482;48.234;13.006;2024-03-06T13:42:10;11.98;;;8.50;;
25615;SDS011;13482;48.234;13.006;2024-03-06T13:44:37;12.02;;;8.63;;
25615;SDS011;13482;48.234;13.006;2024-03-06T13:47:05;10.93;;;7.75;;
25615;SDS011;13482;48.234;13.006;2024-03-06T13:49:38;11.13;;;8.48;;
25615;SDS011;13482;48.234;13.006;2024-03-06T13:52:07;12.30;;;8.68;;
25615;SDS011;13482;48.234;13.006;2024-03-06T13:54:41;9.95;;;7.65;;
25615;SDS011;13482;48.234;13.006;2024-03-06T13:57:09;10.80;;;8.02;;
25615;SDS011;13482;48.234;13.006;2024-03-06T13:59:37;11.82;;;8.70;;
25615;SDS011;13482;48.234;13.006;2024-03-06T14:02:05;10.50;;;7.68;;
25615;SDS011;13482;48.234;13.006;2024-03-06T14:04:34;11.25;;;8.48;;
25615;SDS011;13482;48.234;13.006;2024-03-06T14:07:02;10.75;;;8.35;;
25615;SDS011;13482;48.234;13.006;2024-03-06T14:09:29;10.27;;;8.10;;
25615;SDS011;13482;48.234;13.006;2024-03-06T14:11:57;11.52;;;8.23;;
25615;SDS011;13482;48.234;13.006;2024-03-06T14:14:25;10.00;;;7.90;;
25615;SDS011;13482;48.234;13.006;2024-03-06T14:16:53;10.60;;;7.95;;
25615;SDS011;13482;48.234;13.006;2024-03-06T14:19:23;11.35;;;8.15;;
25615;SDS011;13482;48.234;13.006;2024-03-06T14:21:57;10.18;;;7.68;;
25615;SDS011;13482;48.234;13.006;2024-03-06T14:24:29;10.70;;;7.78;;
25615;SDS011;13482;48.234;13.006;2024-03-06T14:26:57;12.52;;;8.40;;
25615;SDS011;13482;48.234;13.006;2024-03-06T14:29:24;11.57;;;7.72;;
25615;SDS011;13482;48.234;13.006;2024-03-06T14:31:54;10.60;;;7.63;;
25615;SDS011;13482;48.234;13.006;2024-03-06T14:34:22;10.80;;;7.85;;
25615;SDS011;13482;48.234;13.006;2024-03-06T14:36:50;11.63;;;8.10;;
25615;SDS011;13482;48.234;13.006;2024-03-06T14:39:18;9.85;;;7.43;;
25615;SDS011;13482;48.234;13.006;2024-03-06T14:41:51;9.90;;;7.60;;
25615;SDS011;13482;48.234;13.006;2024-03-06T14:44:19;10.48;;;7.80;;
25615;SDS011;13482;48.234;13.006;2024-03-06T14:46:47;10.20;;;7.85;;
25615;SDS011;13482;48.234;13.006;2024-03-06T14:49:14;9.57;;;7.63;;